sensor_id;sensor_type;location;lat;lon;timestamp;temperature;humidity
8436;DHT22;4255;48.730;9.156;2024-01-27T00:01:48;5.20;1.00
8436;DHT22;4255;48.730;9.156;2024-01-27T00:04:13;5.20;1.00
8436;DHT22;4255;48.730;9.156;2024-01-27T00:06:39;5.20;1.00
8436;DHT22;4255;48.730;9.156;2024-01-27T00:09:05;5.10;1.00
8436;DHT22;4255;48.730;9.156;2024-01-27T00:11:31;5.10;1.00
8436;DHT22;4255;48.730;9.156;2024-01-27T00:13:57;5.00;1.00
8436;DHT22;4255;48.730;9.156;2024-01-27T00:16:24;5.00;1.00
8436;DHT22;4255;48.730;9.156;2024-01-27T00:18:50;4.90;1.00
8436;DHT22;4255;48.730;9.156;2024-01-27T00:21:16;4.90;1.00
8436;DHT22;4255;48.730;9.156;2024-01-27T00:23:41;4.80;1.00
8436;DHT22;4255;48.730;9.156;2024-01-27T00:26:07;4.80;1.00
8436;DHT22;4255;48.730;9.156;2024-01-27T00:28:32;4.70;1.00
8436;DHT22;4255;48.730;9.156;2024-01-27T00:30:58;4.70;1.00
8436;DHT22;4255;48.730;9.156;2024-01-27T00:33:23;4.60;12.00
8436;DHT22;4255;48.730;9.156;2024-01-27T00:35:49;4.60;8.50
8436;DHT22;4255;48.730;9.156;2024-01-27T00:38:15;4.60;1.00
8436;DHT22;4255;48.730;9.156;2024-01-27T00:40:40;4.70;1.00
8436;DHT22;4255;48.730;9.156;2024-01-27T00:43:06;4.70;1.00
8436;DHT22;4255;48.730;9.156;2024-01-27T00:45:32;4.60;6.00
8436;DHT22;4255;48.730;9.156;2024-01-27T00:47:57;4.60;13.40
8436;DHT22;4255;48.730;9.156;2024-01-27T00:50:23;4.50;14.30
8436;DHT22;4255;48.730;9.156;2024-01-27T00:52:49;4.40;98.70
8436;DHT22;4255;48.730;9.156;2024-01-27T00:55:14;4.30;69.00
8436;DHT22;4255;48.730;9.156;2024-01-27T00:57:40;4.30;63.90
8436;DHT22;4255;48.730;9.156;2024-01-27T01:00:07;4.40;46.50
8436;DHT22;4255;48.730;9.156;2024-01-27T01:02:33;4.40;28.90
8436;DHT22;4255;48.730;9.156;2024-01-27T01:04:59;4.40;17.50
8436;DHT22;4255;48.730;9.156;2024-01-27T01:07:24;4.40;15.60
8436;DHT22;4255;48.730;9.156;2024-01-27T01:09:50;4.30;40.90
8436;DHT22;4255;48.730;9.156;2024-01-27T01:12:16;4.30;27.60
8436;DHT22;4255;48.730;9.156;2024-01-27T01:14:43;4.30;19.70
8436;DHT22;4255;48.730;9.156;2024-01-27T01:17:08;4.30;23.10
8436;DHT22;4255;48.730;9.156;2024-01-27T01:19:34;4.30;33.90
8436;DHT22;4255;48.730;9.156;2024-01-27T01:21:59;4.30;45.80
8436;DHT22;4255;48.730;9.156;2024-01-27T01:24:25;4.30;27.50
8436;DHT22;4255;48.730;9.156;2024-01-27T01:26:51;4.30;24.60
8436;DHT22;4255;48.730;9.156;2024-01-27T01:29:16;4.20;18.10
8436;DHT22;4255;48.730;9.156;2024-01-27T01:31:45;4.20;14.90
8436;DHT22;4255;48.730;9.156;2024-01-27T01:34:10;4.20;21.90
8436;DHT22;4255;48.730;9.156;2024-01-27T01:36:36;4.10;31.60
8436;DHT22;4255;48.730;9.156;2024-01-27T01:39:03;4.10;28.20
8436;DHT22;4255;48.730;9.156;2024-01-27T01:41:28;4.10;22.90
8436;DHT22;4255;48.730;9.156;2024-01-27T01:43:54;4.00;34.60
8436;DHT22;4255;48.730;9.156;2024-01-27T01:46:21;4.00;34.80
8436;DHT22;4255;48.730;9.156;2024-01-27T01:48:46;3.90;51.10
8436;DHT22;4255;48.730;9.156;2024-01-27T01:51:12;3.90;38.10
8436;DHT22;4255;48.730;9.156;2024-01-27T01:53:38;4.00;37.20
8436;DHT22;4255;48.730;9.156;2024-01-27T01:56:04;3.90;43.00
8436;DHT22;4255;48.730;9.156;2024-01-27T01:58:31;4.00;34.90
8436;DHT22;4255;48.730;9.156;2024-01-27T02:01:00;3.90;30.40
8436;DHT22;4255;48.730;9.156;2024-01-27T02:03:26;3.90;34.60
8436;DHT22;4255;48.730;9.156;2024-01-27T02:05:52;3.90;57.40
8436;DHT22;4255;48.730;9.156;2024-01-27T02:08:18;3.90;58.00
8436;DHT22;4255;48.730;9.156;2024-01-27T02:10:43;3.90;57.30
8436;DHT22;4255;48.730;9.156;2024-01-27T02:13:22;3.90;55.60
8436;DHT22;4255;48.730;9.156;2024-01-27T02:15:48;3.90;43.30
8436;DHT22;4255;48.730;9.156;2024-01-27T02:18:14;3.90;42.30
8436;DHT22;4255;48.730;9.156;2024-01-27T02:20:40;3.90;46.30
8436;DHT22;4255;48.730;9.156;2024-01-27T02:23:06;3.80;42.90
8436;DHT22;4255;48.730;9.156;2024-01-27T02:25:32;3.80;42.60
8436;DHT22;4255;48.730;9.156;2024-01-27T02:27:58;3.80;38.50
8436;DHT22;4255;48.730;9.156;2024-01-27T02:30:24;3.80;47.70
8436;DHT22;4255;48.730;9.156;2024-01-27T02:32:50;3.70;53.10
8436;DHT22;4255;48.730;9.156;2024-01-27T02:35:15;3.70;60.00
8436;DHT22;4255;48.730;9.156;2024-01-27T02:37:41;3.80;54.20
8436;DHT22;4255;48.730;9.156;2024-01-27T02:40:08;3.80;46.70
8436;DHT22;4255;48.730;9.156;2024-01-27T02:42:35;3.80;51.00
8436;DHT22;4255;48.730;9.156;2024-01-27T02:45:01;3.70;50.90
8436;DHT22;4255;48.730;9.156;2024-01-27T02:47:26;3.70;47.70
8436;DHT22;4255;48.730;9.156;2024-01-27T02:49:52;3.70;62.00
8436;DHT22;4255;48.730;9.156;2024-01-27T02:52:18;3.70;47.90
8436;DHT22;4255;48.730;9.156;2024-01-27T02:54:44;3.70;50.20
8436;DHT22;4255;48.730;9.156;2024-01-27T02:57:09;3.70;45.90
8436;DHT22;4255;48.730;9.156;2024-01-27T02:59:35;3.60;58.50
8436;DHT22;4255;48.730;9.156;2024-01-27T03:02:01;3.70;46.50
8436;DHT22;4255;48.730;9.156;2024-01-27T03:04:26;3.60;46.80
8436;DHT22;4255;48.730;9.156;2024-01-27T03:06:52;3.60;52.50
8436;DHT22;4255;48.730;9.156;2024-01-27T03:09:18;3.50;42.70
8436;DHT22;4255;48.730;9.156;2024-01-27T03:11:43;3.50;56.50
8436;DHT22;4255;48.730;9.156;2024-01-27T03:14:09;3.40;48.40
8436;DHT22;4255;48.730;9.156;2024-01-27T03:16:36;3.40;55.70
8436;DHT22;4255;48.730;9.156;2024-01-27T03:19:01;3.30;58.00
8436;DHT22;4255;48.730;9.156;2024-01-27T03:21:27;3.30;60.80
8436;DHT22;4255;48.730;9.156;2024-01-27T03:23:53;3.30;61.70
8436;DHT22;4255;48.730;9.156;2024-01-27T03:26:18;3.30;56.30
8436;DHT22;4255;48.730;9.156;2024-01-27T03:28:44;3.20;90.40
8436;DHT22;4255;48.730;9.156;2024-01-27T03:31:10;3.30;91.90
8436;DHT22;4255;48.730;9.156;2024-01-27T03:33:35;3.30;80.20
8436;DHT22;4255;48.730;9.156;2024-01-27T03:36:01;3.30;81.30
8436;DHT22;4255;48.730;9.156;2024-01-27T03:38:26;3.30;83.50
8436;DHT22;4255;48.730;9.156;2024-01-27T03:40:52;3.30;80.60
8436;DHT22;4255;48.730;9.156;2024-01-27T03:43:18;3.20;94.90
8436;DHT22;4255;48.730;9.156;2024-01-27T03:45:43;3.30;99.90
8436;DHT22;4255;48.730;9.156;2024-01-27T03:48:09;3.30;99.90
8436;DHT22;4255;48.730;9.156;2024-01-27T03:50:35;3.30;99.90
8436;DHT22;4255;48.730;9.156;2024-01-27T03:53:00;3.30;99.90
8436;DHT22;4255;48.730;9.156;2024-01-27T03:55:26;3.30;99.90
8436;DHT22;4255;48.730;9.156;2024-01-27T03:57:51;3.20;99.90
8436;DHT22;4255;48.730;9.156;2024-01-27T04:00:17;3.30;99.90
8436;DHT22;4255;48.730;9.156;2024-01-27T04:02:43;3.20;99.90
8436;DHT22;4255;48.730;9.156;2024-01-27T04:05:08;3.30;99.90
8436;DHT22;4255;48.730;9.156;2024-01-27T04:07:34;3.30;99.90
8436;DHT22;4255;48.730;9.156;2024-01-27T04:10:02;3.40;99.90
8436;DHT22;4255;48.730;9.156;2024-01-27T04:12:28;3.40;99.90
8436;DHT22;4255;48.730;9.156;2024-01-27T04:14:53;3.40;99.70
8436;DHT22;4255;48.730;9.156;2024-01-27T04:17:19;3.40;97.90
8436;DHT22;4255;48.730;9.156;2024-01-27T04:19:44;3.40;87.30
8436;DHT22;4255;48.730;9.156;2024-01-27T04:22:10;3.40;88.40
8436;DHT22;4255;48.730;9.156;2024-01-27T04:24:35;3.30;86.40
8436;DHT22;4255;48.730;9.156;2024-01-27T04:27:01;3.40;79.60
8436;DHT22;4255;48.730;9.156;2024-01-27T04:29:27;3.30;69.10
8436;DHT22;4255;48.730;9.156;2024-01-27T04:31:53;3.30;79.20
8436;DHT22;4255;48.730;9.156;2024-01-27T04:34:18;3.10;91.00
8436;DHT22;4255;48.730;9.156;2024-01-27T04:36:44;3.00;99.90
8436;DHT22;4255;48.730;9.156;2024-01-27T04:39:10;3.00;99.90
8436;DHT22;4255;48.730;9.156;2024-01-27T04:41:41;2.90;99.90
8436;DHT22;4255;48.730;9.156;2024-01-27T04:44:08;2.90;99.90
8436;DHT22;4255;48.730;9.156;2024-01-27T04:46:33;2.90;99.90
8436;DHT22;4255;48.730;9.156;2024-01-27T04:48:59;2.80;99.90
8436;DHT22;4255;48.730;9.156;2024-01-27T04:51:24;2.80;99.90
8436;DHT22;4255;48.730;9.156;2024-01-27T04:53:50;3.00;99.90
8436;DHT22;4255;48.730;9.156;2024-01-27T04:56:16;3.00;99.90
8436;DHT22;4255;48.730;9.156;2024-01-27T04:58:41;3.00;99.90
8436;DHT22;4255;48.730;9.156;2024-01-27T05:01:07;3.10;99.90
8436;DHT22;4255;48.730;9.156;2024-01-27T05:03:33;3.10;99.90
8436;DHT22;4255;48.730;9.156;2024-01-27T05:05:59;3.20;99.90
8436;DHT22;4255;48.730;9.156;2024-01-27T05:08:25;3.20;99.90
8436;DHT22;4255;48.730;9.156;2024-01-27T05:10:50;3.30;99.90
8436;DHT22;4255;48.730;9.156;2024-01-27T05:13:16;3.20;99.90
8436;DHT22;4255;48.730;9.156;2024-01-27T05:15:42;3.30;99.90
8436;DHT22;4255;48.730;9.156;2024-01-27T05:18:07;3.40;99.90
8436;DHT22;4255;48.730;9.156;2024-01-27T05:20:33;3.40;99.90
8436;DHT22;4255;48.730;9.156;2024-01-27T05:22:58;3.40;99.90
8436;DHT22;4255;48.730;9.156;2024-01-27T05:25:24;3.30;99.90
8436;DHT22;4255;48.730;9.156;2024-01-27T05:27:49;3.20;99.90
8436;DHT22;4255;48.730;9.156;2024-01-27T05:30:16;3.10;99.90
8436;DHT22;4255;48.730;9.156;2024-01-27T05:32:41;3.10;99.90
8436;DHT22;4255;48.730;9.156;2024-01-27T05:35:07;3.00;99.90
8436;DHT22;4255;48.730;9.156;2024-01-27T05:37:33;2.90;99.90
8436;DHT22;4255;48.730;9.156;2024-01-27T05:39:58;2.80;99.90
8436;DHT22;4255;48.730;9.156;2024-01-27T05:42:24;2.70;99.90
8436;DHT22;4255;48.730;9.156;2024-01-27T05:44:50;2.60;99.90
8436;DHT22;4255;48.730;9.156;2024-01-27T05:47:15;2.50;99.90
8436;DHT22;4255;48.730;9.156;2024-01-27T05:49:41;2.40;99.90
8436;DHT22;4255;48.730;9.156;2024-01-27T05:52:07;2.40;99.90
8436;DHT22;4255;48.730;9.156;2024-01-27T05:54:32;2.50;99.90
8436;DHT22;4255;48.730;9.156;2024-01-27T05:56:58;2.50;99.90
8436;DHT22;4255;48.730;9.156;2024-01-27T05:59:24;2.50;99.90
8436;DHT22;4255;48.730;9.156;2024-01-27T06:01:49;2.50;99.90
8436;DHT22;4255;48.730;9.156;2024-01-27T06:04:15;2.50;99.90
8436;DHT22;4255;48.730;9.156;2024-01-27T06:06:41;2.50;99.90
8436;DHT22;4255;48.730;9.156;2024-01-27T06:09:07;2.50;99.90
8436;DHT22;4255;48.730;9.156;2024-01-27T06:11:39;2.40;99.90
8436;DHT22;4255;48.730;9.156;2024-01-27T06:14:05;2.30;99.90
8436;DHT22;4255;48.730;9.156;2024-01-27T06:16:32;2.30;99.90
8436;DHT22;4255;48.730;9.156;2024-01-27T06:18:58;2.20;99.90
8436;DHT22;4255;48.730;9.156;2024-01-27T06:21:23;2.20;99.90
8436;DHT22;4255;48.730;9.156;2024-01-27T06:23:49;2.10;99.90
8436;DHT22;4255;48.730;9.156;2024-01-27T06:26:14;2.10;99.90
8436;DHT22;4255;48.730;9.156;2024-01-27T06:28:40;2.10;99.90
8436;DHT22;4255;48.730;9.156;2024-01-27T06:31:06;2.00;99.90
8436;DHT22;4255;48.730;9.156;2024-01-27T06:33:34;2.00;99.90
8436;DHT22;4255;48.730;9.156;2024-01-27T06:36:00;2.20;99.90
8436;DHT22;4255;48.730;9.156;2024-01-27T06:38:27;2.20;99.90
8436;DHT22;4255;48.730;9.156;2024-01-27T06:40:52;2.30;99.90
8436;DHT22;4255;48.730;9.156;2024-01-27T06:43:18;2.40;99.90
8436;DHT22;4255;48.730;9.156;2024-01-27T06:45:44;2.40;99.90
8436;DHT22;4255;48.730;9.156;2024-01-27T06:48:09;2.50;99.90
8436;DHT22;4255;48.730;9.156;2024-01-27T06:50:35;2.50;99.90
8436;DHT22;4255;48.730;9.156;2024-01-27T06:53:01;2.50;99.90
8436;DHT22;4255;48.730;9.156;2024-01-27T06:55:27;2.50;99.90
8436;DHT22;4255;48.730;9.156;2024-01-27T06:57:52;2.50;99.90
8436;DHT22;4255;48.730;9.156;2024-01-27T07:00:19;2.50;99.90
8436;DHT22;4255;48.730;9.156;2024-01-27T07:02:45;2.60;99.90
8436;DHT22;4255;48.730;9.156;2024-01-27T07:05:11;2.50;99.90
8436;DHT22;4255;48.730;9.156;2024-01-27T07:07:37;2.50;99.90
8436;DHT22;4255;48.730;9.156;2024-01-27T07:10:03;2.40;99.90
8436;DHT22;4255;48.730;9.156;2024-01-27T07:12:29;2.40;99.90
8436;DHT22;4255;48.730;9.156;2024-01-27T07:14:54;2.40;99.90
8436;DHT22;4255;48.730;9.156;2024-01-27T07:17:20;2.60;99.90
8436;DHT22;4255;48.730;9.156;2024-01-27T07:19:46;2.60;99.90
8436;DHT22;4255;48.730;9.156;2024-01-27T07:22:12;2.60;99.90
8436;DHT22;4255;48.730;9.156;2024-01-27T07:24:38;2.70;99.90
8436;DHT22;4255;48.730;9.156;2024-01-27T07:27:04;2.80;99.90
8436;DHT22;4255;48.730;9.156;2024-01-27T07:29:30;2.90;99.90
8436;DHT22;4255;48.730;9.156;2024-01-27T07:31:56;3.20;99.90
8436;DHT22;4255;48.730;9.156;2024-01-27T07:34:22;3.60;99.90
8436;DHT22;4255;48.730;9.156;2024-01-27T07:36:47;3.90;99.90
8436;DHT22;4255;48.730;9.156;2024-01-27T07:39:15;4.20;99.90
8436;DHT22;4255;48.730;9.156;2024-01-27T07:41:40;4.50;99.90
8436;DHT22;4255;48.730;9.156;2024-01-27T07:44:13;5.00;99.90
8436;DHT22;4255;48.730;9.156;2024-01-27T07:46:39;5.40;99.90
8436;DHT22;4255;48.730;9.156;2024-01-27T07:49:06;5.60;67.20
8436;DHT22;4255;48.730;9.156;2024-01-27T07:51:31;5.50;47.00
8436;DHT22;4255;48.730;9.156;2024-01-27T07:53:57;5.30;23.10
8436;DHT22;4255;48.730;9.156;2024-01-27T07:56:23;5.10;5.90
8436;DHT22;4255;48.730;9.156;2024-01-27T07:58:49;4.90;2.00
8436;DHT22;4255;48.730;9.156;2024-01-27T08:01:15;4.70;1.00
8436;DHT22;4255;48.730;9.156;2024-01-27T08:03:41;4.60;20.40
8436;DHT22;4255;48.730;9.156;2024-01-27T08:06:10;4.50;27.20
8436;DHT22;4255;48.730;9.156;2024-01-27T08:08:36;4.50;27.10
8436;DHT22;4255;48.730;9.156;2024-01-27T08:11:02;4.40;1.10
8436;DHT22;4255;48.730;9.156;2024-01-27T08:13:28;4.40;15.00
8436;DHT22;4255;48.730;9.156;2024-01-27T08:15:54;4.40;24.30
8436;DHT22;4255;48.730;9.156;2024-01-27T08:18:19;4.50;35.90
8436;DHT22;4255;48.730;9.156;2024-01-27T08:20:45;4.60;41.40
8436;DHT22;4255;48.730;9.156;2024-01-27T08:23:11;4.70;41.30
8436;DHT22;4255;48.730;9.156;2024-01-27T08:25:36;4.70;13.00
8436;DHT22;4255;48.730;9.156;2024-01-27T08:28:03;4.80;19.30
8436;DHT22;4255;48.730;9.156;2024-01-27T08:30:29;4.80;2.20
8436;DHT22;4255;48.730;9.156;2024-01-27T08:32:55;4.90;10.40
8436;DHT22;4255;48.730;9.156;2024-01-27T08:35:21;4.90;5.90
8436;DHT22;4255;48.730;9.156;2024-01-27T08:37:47;4.60;6.40
8436;DHT22;4255;48.730;9.156;2024-01-27T08:40:12;4.40;51.40
8436;DHT22;4255;48.730;9.156;2024-01-27T08:42:38;4.60;71.30
8436;DHT22;4255;48.730;9.156;2024-01-27T08:45:05;4.70;46.30
8436;DHT22;4255;48.730;9.156;2024-01-27T08:47:31;4.70;37.70
8436;DHT22;4255;48.730;9.156;2024-01-27T08:49:57;4.60;41.90
8436;DHT22;4255;48.730;9.156;2024-01-27T08:52:23;4.50;75.20
8436;DHT22;4255;48.730;9.156;2024-01-27T08:54:48;4.50;70.60
8436;DHT22;4255;48.730;9.156;2024-01-27T08:57:14;4.30;57.60
8436;DHT22;4255;48.730;9.156;2024-01-27T08:59:40;4.20;77.50
8436;DHT22;4255;48.730;9.156;2024-01-27T09:02:05;4.20;95.70
8436;DHT22;4255;48.730;9.156;2024-01-27T09:04:31;4.20;99.90
8436;DHT22;4255;48.730;9.156;2024-01-27T09:06:56;4.20;95.30
8436;DHT22;4255;48.730;9.156;2024-01-27T09:09:22;4.40;95.60
8436;DHT22;4255;48.730;9.156;2024-01-27T09:11:48;4.70;90.90
8436;DHT22;4255;48.730;9.156;2024-01-27T09:14:15;4.90;43.80
8436;DHT22;4255;48.730;9.156;2024-01-27T09:16:41;5.30;30.00
8436;DHT22;4255;48.730;9.156;2024-01-27T09:19:07;5.40;1.00
8436;DHT22;4255;48.730;9.156;2024-01-27T09:21:33;5.30;1.00
8436;DHT22;4255;48.730;9.156;2024-01-27T09:23:59;5.40;1.00
8436;DHT22;4255;48.730;9.156;2024-01-27T09:26:26;5.60;1.00
8436;DHT22;4255;48.730;9.156;2024-01-27T09:28:52;5.60;1.00
8436;DHT22;4255;48.730;9.156;2024-01-27T09:31:21;5.80;1.00
8436;DHT22;4255;48.730;9.156;2024-01-27T09:33:52;5.90;1.00
8436;DHT22;4255;48.730;9.156;2024-01-27T09:36:19;6.00;1.00
8436;DHT22;4255;48.730;9.156;2024-01-27T09:38:45;6.00;1.00
8436;DHT22;4255;48.730;9.156;2024-01-27T09:41:13;6.10;1.00
8436;DHT22;4255;48.730;9.156;2024-01-27T09:43:42;6.20;1.00
8436;DHT22;4255;48.730;9.156;2024-01-27T09:46:10;6.20;1.00
8436;DHT22;4255;48.730;9.156;2024-01-27T09:48:36;6.10;1.00
8436;DHT22;4255;48.730;9.156;2024-01-27T09:51:01;6.00;1.00
8436;DHT22;4255;48.730;9.156;2024-01-27T09:53:28;6.00;1.00
8436;DHT22;4255;48.730;9.156;2024-01-27T09:55:57;5.90;1.00
8436;DHT22;4255;48.730;9.156;2024-01-27T09:58:25;5.90;1.00
8436;DHT22;4255;48.730;9.156;2024-01-27T10:00:55;6.00;1.00
8436;DHT22;4255;48.730;9.156;2024-01-27T10:03:26;6.20;1.00
8436;DHT22;4255;48.730;9.156;2024-01-27T10:05:53;6.40;1.00
8436;DHT22;4255;48.730;9.156;2024-01-27T10:08:20;6.40;1.00
8436;DHT22;4255;48.730;9.156;2024-01-27T10:10:47;6.40;1.00
8436;DHT22;4255;48.730;9.156;2024-01-27T10:13:14;6.50;1.00
8436;DHT22;4255;48.730;9.156;2024-01-27T10:15:42;6.60;1.00
8436;DHT22;4255;48.730;9.156;2024-01-27T10:18:08;6.70;1.00
8436;DHT22;4255;48.730;9.156;2024-01-27T10:20:39;6.80;1.00
8436;DHT22;4255;48.730;9.156;2024-01-27T10:23:12;7.00;1.00
8436;DHT22;4255;48.730;9.156;2024-01-27T10:25:38;7.10;1.00
8436;DHT22;4255;48.730;9.156;2024-01-27T10:28:08;7.10;1.00
8436;DHT22;4255;48.730;9.156;2024-01-27T10:30:34;7.20;1.00
8436;DHT22;4255;48.730;9.156;2024-01-27T10:33:00;7.10;99.90
8436;DHT22;4255;48.730;9.156;2024-01-27T10:35:25;7.20;99.90
8436;DHT22;4255;48.730;9.156;2024-01-27T10:37:52;7.40;99.90
8436;DHT22;4255;48.730;9.156;2024-01-27T10:40:19;7.50;99.90
8436;DHT22;4255;48.730;9.156;2024-01-27T10:42:45;7.40;99.90
8436;DHT22;4255;48.730;9.156;2024-01-27T10:45:12;7.40;57.50
8436;DHT22;4255;48.730;9.156;2024-01-27T10:47:39;7.30;1.00
8436;DHT22;4255;48.730;9.156;2024-01-27T10:50:08;7.30;95.10
8436;DHT22;4255;48.730;9.156;2024-01-27T10:52:38;7.40;99.90
8436;DHT22;4255;48.730;9.156;2024-01-27T10:55:07;7.40;1.00
8436;DHT22;4255;48.730;9.156;2024-01-27T10:57:36;7.50;1.00
8436;DHT22;4255;48.730;9.156;2024-01-27T11:00:03;7.60;1.00
8436;DHT22;4255;48.730;9.156;2024-01-27T11:02:35;7.70;1.00
8436;DHT22;4255;48.730;9.156;2024-01-27T11:05:02;7.80;90.50
8436;DHT22;4255;48.730;9.156;2024-01-27T11:07:31;7.70;99.90
8436;DHT22;4255;48.730;9.156;2024-01-27T11:09:57;7.70;99.90
8436;DHT22;4255;48.730;9.156;2024-01-27T11:12:23;7.70;1.00
8436;DHT22;4255;48.730;9.156;2024-01-27T11:14:50;7.70;1.00
8436;DHT22;4255;48.730;9.156;2024-01-27T11:17:17;7.70;1.00
8436;DHT22;4255;48.730;9.156;2024-01-27T11:19:44;7.50;1.00
8436;DHT22;4255;48.730;9.156;2024-01-27T11:22:26;7.70;1.00
8436;DHT22;4255;48.730;9.156;2024-01-27T11:25:04;7.60;1.00
8436;DHT22;4255;48.730;9.156;2024-01-27T11:27:30;7.60;4.10
8436;DHT22;4255;48.730;9.156;2024-01-27T11:29:56;7.70;99.90
8436;DHT22;4255;48.730;9.156;2024-01-27T11:32:21;7.60;99.90
8436;DHT22;4255;48.730;9.156;2024-01-27T11:34:47;7.50;1.00
8436;DHT22;4255;48.730;9.156;2024-01-27T11:37:17;7.50;1.00
8436;DHT22;4255;48.730;9.156;2024-01-27T11:39:43;7.60;99.90
8436;DHT22;4255;48.730;9.156;2024-01-27T11:42:10;7.40;99.90
8436;DHT22;4255;48.730;9.156;2024-01-27T11:44:40;7.50;99.90
8436;DHT22;4255;48.730;9.156;2024-01-27T11:47:14;7.60;99.90
8436;DHT22;4255;48.730;9.156;2024-01-27T11:49:40;7.60;99.90
8436;DHT22;4255;48.730;9.156;2024-01-27T11:52:06;7.60;99.90
8436;DHT22;4255;48.730;9.156;2024-01-27T11:54:32;7.70;99.90
8436;DHT22;4255;48.730;9.156;2024-01-27T11:56:58;7.70;1.00
8436;DHT22;4255;48.730;9.156;2024-01-27T11:59:23;7.60;1.00
8436;DHT22;4255;48.730;9.156;2024-01-27T12:01:49;7.70;99.90
8436;DHT22;4255;48.730;9.156;2024-01-27T12:04:16;7.80;98.30
8436;DHT22;4255;48.730;9.156;2024-01-27T12:06:43;7.80;1.00
8436;DHT22;4255;48.730;9.156;2024-01-27T12:09:09;7.90;1.00
8436;DHT22;4255;48.730;9.156;2024-01-27T12:11:38;8.00;99.90
8436;DHT22;4255;48.730;9.156;2024-01-27T12:14:07;8.10;99.90
8436;DHT22;4255;48.730;9.156;2024-01-27T12:16:32;8.20;1.00
8436;DHT22;4255;48.730;9.156;2024-01-27T12:18:58;8.20;1.00
8436;DHT22;4255;48.730;9.156;2024-01-27T12:21:25;8.40;10.20
8436;DHT22;4255;48.730;9.156;2024-01-27T12:23:55;8.40;99.90
8436;DHT22;4255;48.730;9.156;2024-01-27T12:26:25;8.60;99.90
8436;DHT22;4255;48.730;9.156;2024-01-27T12:28:51;8.50;1.00
8436;DHT22;4255;48.730;9.156;2024-01-27T12:31:16;8.70;1.00
8436;DHT22;4255;48.730;9.156;2024-01-27T12:33:53;8.80;99.90
8436;DHT22;4255;48.730;9.156;2024-01-27T12:36:19;8.90;14.70
8436;DHT22;4255;48.730;9.156;2024-01-27T12:39:08;9.00;1.00
8436;DHT22;4255;48.730;9.156;2024-01-27T12:41:34;9.10;1.00
8436;DHT22;4255;48.730;9.156;2024-01-27T12:44:00;9.20;99.90
8436;DHT22;4255;48.730;9.156;2024-01-27T12:46:26;9.20;99.90
8436;DHT22;4255;48.730;9.156;2024-01-27T12:48:52;9.30;99.90
8436;DHT22;4255;48.730;9.156;2024-01-27T12:51:18;9.20;99.90
8436;DHT22;4255;48.730;9.156;2024-01-27T12:53:44;9.10;1.00
8436;DHT22;4255;48.730;9.156;2024-01-27T12:56:11;9.10;99.90
8436;DHT22;4255;48.730;9.156;2024-01-27T12:58:37;8.80;99.90
8436;DHT22;4255;48.730;9.156;2024-01-27T13:01:03;8.50;99.90
8436;DHT22;4255;48.730;9.156;2024-01-27T13:03:29;8.30;99.90
8436;DHT22;4255;48.730;9.156;2024-01-27T13:05:56;8.30;1.00
8436;DHT22;4255;48.730;9.156;2024-01-27T13:08:22;8.40;1.00
8436;DHT22;4255;48.730;9.156;2024-01-27T13:10:48;8.30;1.00
8436;DHT22;4255;48.730;9.156;2024-01-27T13:13:14;8.30;99.90
8436;DHT22;4255;48.730;9.156;2024-01-27T13:15:40;8.40;1.00
8436;DHT22;4255;48.730;9.156;2024-01-27T13:18:06;8.70;1.00
8436;DHT22;4255;48.730;9.156;2024-01-27T13:20:31;8.70;1.00
8436;DHT22;4255;48.730;9.156;2024-01-27T13:22:58;8.90;99.90
8436;DHT22;4255;48.730;9.156;2024-01-27T13:25:24;8.80;1.00
8436;DHT22;4255;48.730;9.156;2024-01-27T13:27:49;8.90;1.00
8436;DHT22;4255;48.730;9.156;2024-01-27T13:30:15;8.80;1.00
8436;DHT22;4255;48.730;9.156;2024-01-27T13:32:43;8.80;1.00
8436;DHT22;4255;48.730;9.156;2024-01-27T13:35:08;9.10;1.00
8436;DHT22;4255;48.730;9.156;2024-01-27T13:37:34;9.40;1.00
8436;DHT22;4255;48.730;9.156;2024-01-27T13:40:00;9.40;1.00
8436;DHT22;4255;48.730;9.156;2024-01-27T13:42:26;9.30;1.00
8436;DHT22;4255;48.730;9.156;2024-01-27T13:44:52;9.20;99.90
8436;DHT22;4255;48.730;9.156;2024-01-27T13:47:18;9.20;1.00
8436;DHT22;4255;48.730;9.156;2024-01-27T13:49:44;9.40;1.00
8436;DHT22;4255;48.730;9.156;2024-01-27T13:52:10;9.60;1.00
8436;DHT22;4255;48.730;9.156;2024-01-27T13:54:37;9.60;1.00
8436;DHT22;4255;48.730;9.156;2024-01-27T13:57:03;9.80;99.90
8436;DHT22;4255;48.730;9.156;2024-01-27T13:59:29;9.80;99.90
8436;DHT22;4255;48.730;9.156;2024-01-27T14:01:55;9.80;99.90
8436;DHT22;4255;48.730;9.156;2024-01-27T14:04:22;9.70;99.90
8436;DHT22;4255;48.730;9.156;2024-01-27T14:06:50;9.40;99.90
8436;DHT22;4255;48.730;9.156;2024-01-27T14:09:16;9.30;99.90
8436;DHT22;4255;48.730;9.156;2024-01-27T14:11:43;9.30;99.90
8436;DHT22;4255;48.730;9.156;2024-01-27T14:14:09;9.10;99.90
8436;DHT22;4255;48.730;9.156;2024-01-27T14:16:34;9.20;99.90
8436;DHT22;4255;48.730;9.156;2024-01-27T14:19:00;9.30;99.90
8436;DHT22;4255;48.730;9.156;2024-01-27T14:21:26;9.30;99.90
8436;DHT22;4255;48.730;9.156;2024-01-27T14:23:52;9.30;99.90
8436;DHT22;4255;48.730;9.156;2024-01-27T14:26:26;9.30;99.90
8436;DHT22;4255;48.730;9.156;2024-01-27T14:28:54;9.30;99.90
8436;DHT22;4255;48.730;9.156;2024-01-27T14:31:20;9.30;1.00
8436;DHT22;4255;48.730;9.156;2024-01-27T14:33:46;9.30;1.00
8436;DHT22;4255;48.730;9.156;2024-01-27T14:36:11;9.40;1.00
8436;DHT22;4255;48.730;9.156;2024-01-27T14:38:37;9.40;99.90
8436;DHT22;4255;48.730;9.156;2024-01-27T14:41:03;9.40;1.00
8436;DHT22;4255;48.730;9.156;2024-01-27T14:43:30;9.20;1.00
8436;DHT22;4255;48.730;9.156;2024-01-27T14:45:55;9.10;1.00
8436;DHT22;4255;48.730;9.156;2024-01-27T14:48:21;8.90;1.00
8436;DHT22;4255;48.730;9.156;2024-01-27T14:50:47;8.90;1.00
8436;DHT22;4255;48.730;9.156;2024-01-27T14:53:22;9.10;1.00
8436;DHT22;4255;48.730;9.156;2024-01-27T14:55:48;9.00;1.00
8436;DHT22;4255;48.730;9.156;2024-01-27T14:58:14;9.00;1.00
8436;DHT22;4255;48.730;9.156;2024-01-27T15:00:39;9.00;1.00
8436;DHT22;4255;48.730;9.156;2024-01-27T15:03:08;9.00;1.00
8436;DHT22;4255;48.730;9.156;2024-01-27T15:05:34;9.10;1.00
8436;DHT22;4255;48.730;9.156;2024-01-27T15:08:03;9.20;1.00
8436;DHT22;4255;48.730;9.156;2024-01-27T15:10:29;9.20;1.00
8436;DHT22;4255;48.730;9.156;2024-01-27T15:12:54;9.30;1.00
8436;DHT22;4255;48.730;9.156;2024-01-27T15:15:20;9.30;1.00
8436;DHT22;4255;48.730;9.156;2024-01-27T15:17:45;9.30;1.00
8436;DHT22;4255;48.730;9.156;2024-01-27T15:20:11;9.30;1.00
8436;DHT22;4255;48.730;9.156;2024-01-27T15:22:38;9.10;1.00
8436;DHT22;4255;48.730;9.156;2024-01-27T15:25:04;9.30;1.00
8436;DHT22;4255;48.730;9.156;2024-01-27T15:27:30;9.30;1.00
8436;DHT22;4255;48.730;9.156;2024-01-27T15:29:56;9.20;1.00
8436;DHT22;4255;48.730;9.156;2024-01-27T15:32:21;9.20;1.00
8436;DHT22;4255;48.730;9.156;2024-01-27T15:34:49;9.10;1.00
8436;DHT22;4255;48.730;9.156;2024-01-27T15:37:16;9.10;1.00
8436;DHT22;4255;48.730;9.156;2024-01-27T15:39:42;8.80;1.00
8436;DHT22;4255;48.730;9.156;2024-01-27T15:42:11;8.60;1.00
8436;DHT22;4255;48.730;9.156;2024-01-27T15:44:37;8.40;1.00
8436;DHT22;4255;48.730;9.156;2024-01-27T15:47:02;8.30;66.60
8436;DHT22;4255;48.730;9.156;2024-01-27T15:49:28;8.10;99.90
8436;DHT22;4255;48.730;9.156;2024-01-27T15:51:54;8.10;99.90
8436;DHT22;4255;48.730;9.156;2024-01-27T15:54:20;8.00;1.00
8436;DHT22;4255;48.730;9.156;2024-01-27T15:56:46;8.00;1.00
8436;DHT22;4255;48.730;9.156;2024-01-27T15:59:12;7.90;1.00
8436;DHT22;4255;48.730;9.156;2024-01-27T16:01:39;7.90;1.00
8436;DHT22;4255;48.730;9.156;2024-01-27T16:04:05;7.90;1.00
8436;DHT22;4255;48.730;9.156;2024-01-27T16:06:30;7.90;1.00
8436;DHT22;4255;48.730;9.156;2024-01-27T16:08:56;7.70;99.90
8436;DHT22;4255;48.730;9.156;2024-01-27T16:11:22;7.60;1.00
8436;DHT22;4255;48.730;9.156;2024-01-27T16:13:47;7.50;1.00
8436;DHT22;4255;48.730;9.156;2024-01-27T16:16:13;7.40;99.90
8436;DHT22;4255;48.730;9.156;2024-01-27T16:18:39;7.40;99.90